sensor_id;sensor_type;location;lat;lon;timestamp;pressure;altitude;pressure_sealevel;temperature;humidity
70437;BME280;57877;39.750;-104.894;2022-07-24T00:00:35;83923.59;;;28.23;23.22
70437;BME280;57877;39.750;-104.894;2022-07-24T00:03:00;83926.70;;;28.81;23.26
70437;BME280;57877;39.750;-104.894;2022-07-24T00:05:26;83924.87;;;28.90;22.75
70437;BME280;57877;39.750;-104.894;2022-07-24T00:07:51;83925.06;;;29.51;22.64
70437;BME280;57877;39.750;-104.894;2022-07-24T00:10:18;83921.58;;;28.17;23.19
70437;BME280;57877;39.750;-104.894;2022-07-24T00:12:44;83919.57;;;28.27;22.99
70437;BME280;57877;39.750;-104.894;2022-07-24T00:15:10;83916.18;;;28.57;22.26
70437;BME280;57877;39.750;-104.894;2022-07-24T00:17:36;83919.39;;;28.72;21.86
70437;BME280;57877;39.750;-104.894;2022-07-24T00:20:02;83919.45;;;29.20;20.95
70437;BME280;57877;39.750;-104.894;2022-07-24T00:22:27;83920.37;;;29.26;20.48
70437;BME280;57877;39.750;-104.894;2022-07-24T00:24:53;83928.06;;;29.74;20.21
70437;BME280;57877;39.750;-104.894;2022-07-24T00:27:19;83935.17;;;30.31;20.55
70437;BME280;57877;39.750;-104.894;2022-07-24T00:29:45;83940.80;;;29.90;19.64
70437;BME280;57877;39.750;-104.894;2022-07-24T00:32:11;83944.71;;;29.62;19.80
70437;BME280;57877;39.750;-104.894;2022-07-24T00:34:37;83946.44;;;30.16;19.57
70437;BME280;57877;39.750;-104.894;2022-07-24T00:37:03;83944.83;;;30.06;19.99
70437;BME280;57877;39.750;-104.894;2022-07-24T00:39:27;83940.27;;;29.20;19.97
70437;BME280;57877;39.750;-104.894;2022-07-24T00:41:53;83943.29;;;29.18;20.66
70437;BME280;57877;39.750;-104.894;2022-07-24T00:44:20;83946.64;;;28.68;21.22
70437;BME280;57877;39.750;-104.894;2022-07-24T00:46:46;83945.03;;;28.27;21.83
70437;BME280;57877;39.750;-104.894;2022-07-24T00:49:13;83953.33;;;28.92;21.47
70437;BME280;57877;39.750;-104.894;2022-07-24T00:51:40;83955.36;;;28.31;22.37
70437;BME280;57877;39.750;-104.894;2022-07-24T00:54:04;83957.41;;;27.92;23.10
70437;BME280;57877;39.750;-104.894;2022-07-24T00:56:29;83962.58;;;26.96;24.05
70437;BME280;57877;39.750;-104.894;2022-07-24T00:58:56;83956.81;;;27.03;24.30
70437;BME280;57877;39.750;-104.894;2022-07-24T01:01:21;83955.27;;;28.03;23.50
70437;BME280;57877;39.750;-104.894;2022-07-24T01:03:48;83956.34;;;28.17;22.66
70437;BME280;57877;39.750;-104.894;2022-07-24T01:06:14;83959.67;;;28.31;22.69
70437;BME280;57877;39.750;-104.894;2022-07-24T01:08:40;83968.07;;;27.98;22.84
70437;BME280;57877;39.750;-104.894;2022-07-24T01:11:05;83969.34;;;27.33;23.35
70437;BME280;57877;39.750;-104.894;2022-07-24T01:13:31;83973.16;;;27.60;23.30
70437;BME280;57877;39.750;-104.894;2022-07-24T01:15:57;83974.49;;;27.23;24.25
70437;BME280;57877;39.750;-104.894;2022-07-24T01:18:23;83976.95;;;27.19;24.25
70437;BME280;57877;39.750;-104.894;2022-07-24T01:20:50;83976.00;;;27.14;24.37
70437;BME280;57877;39.750;-104.894;2022-07-24T01:23:15;83976.20;;;27.39;24.60
70437;BME280;57877;39.750;-104.894;2022-07-24T01:25:42;83974.47;;;27.83;24.19
70437;BME280;57877;39.750;-104.894;2022-07-24T01:28:07;83971.70;;;27.84;23.83
70437;BME280;57877;39.750;-104.894;2022-07-24T01:30:34;83974.68;;;27.76;23.91
70437;BME280;57877;39.750;-104.894;2022-07-24T01:33:00;83981.49;;;28.17;23.67
70437;BME280;57877;39.750;-104.894;2022-07-24T01:35:25;83987.37;;;27.71;23.62
70437;BME280;57877;39.750;-104.894;2022-07-24T01:37:51;83997.15;;;27.80;23.87
70437;BME280;57877;39.750;-104.894;2022-07-24T01:40:17;83997.11;;;27.78;23.71
70437;BME280;57877;39.750;-104.894;2022-07-24T01:42:43;84000.65;;;27.93;23.44
70437;BME280;57877;39.750;-104.894;2022-07-24T01:45:10;84002.04;;;28.30;23.70
70437;BME280;57877;39.750;-104.894;2022-07-24T01:47:35;84005.05;;;28.09;23.47
70437;BME280;57877;39.750;-104.894;2022-07-24T01:50:01;84013.00;;;28.10;23.24
70437;BME280;57877;39.750;-104.894;2022-07-24T01:52:27;84017.24;;;27.84;23.27
70437;BME280;57877;39.750;-104.894;2022-07-24T01:54:53;84019.08;;;27.98;23.04
70437;BME280;57877;39.750;-104.894;2022-07-24T01:57:19;84025.89;;;28.23;23.13
70437;BME280;57877;39.750;-104.894;2022-07-24T01:59:50;84030.71;;;28.17;23.08
70437;BME280;57877;39.750;-104.894;2022-07-24T02:02:11;84038.24;;;27.88;23.11
70437;BME280;57877;39.750;-104.894;2022-07-24T02:04:37;84048.19;;;27.80;22.22
70437;BME280;57877;39.750;-104.894;2022-07-24T02:07:03;84063.21;;;27.97;21.43
70437;BME280;57877;39.750;-104.894;2022-07-24T02:09:29;84078.02;;;28.23;21.02
70437;BME280;57877;39.750;-104.894;2022-07-24T02:11:55;84087.36;;;28.58;20.51
70437;BME280;57877;39.750;-104.894;2022-07-24T02:14:21;84099.38;;;28.16;20.65
70437;BME280;57877;39.750;-104.894;2022-07-24T02:16:47;84109.08;;;28.52;20.51
70437;BME280;57877;39.750;-104.894;2022-07-24T02:19:13;84122.59;;;28.22;20.48
70437;BME280;57877;39.750;-104.894;2022-07-24T02:21:39;84136.68;;;28.72;20.17
70437;BME280;57877;39.750;-104.894;2022-07-24T02:24:06;84148.89;;;28.42;20.42
70437;BME280;57877;39.750;-104.894;2022-07-24T02:26:31;84170.13;;;28.56;20.86
70437;BME280;57877;39.750;-104.894;2022-07-24T02:28:57;84190.96;;;28.10;21.02
70437;BME280;57877;39.750;-104.894;2022-07-24T02:31:23;84221.87;;;27.90;21.76
70437;BME280;57877;39.750;-104.894;2022-07-24T02:33:49;84240.76;;;24.99;28.16
70437;BME280;57877;39.750;-104.894;2022-07-24T02:36:15;84251.25;;;23.87;33.40
70437;BME280;57877;39.750;-104.894;2022-07-24T02:38:41;84271.47;;;22.53;36.38
70437;BME280;57877;39.750;-104.894;2022-07-24T02:41:07;84304.16;;;19.97;45.64
70437;BME280;57877;39.750;-104.894;2022-07-24T02:43:33;84331.14;;;19.48;53.08
70437;BME280;57877;39.750;-104.894;2022-07-24T02:45:59;84345.12;;;19.03;57.00
70437;BME280;57877;39.750;-104.894;2022-07-24T02:48:25;84368.07;;;18.50;59.76
70437;BME280;57877;39.750;-104.894;2022-07-24T02:50:51;84378.65;;;17.29;63.13
70437;BME280;57877;39.750;-104.894;2022-07-24T02:53:17;84384.91;;;16.88;63.42
70437;BME280;57877;39.750;-104.894;2022-07-24T02:55:43;84388.06;;;17.33;63.82
70437;BME280;57877;39.750;-104.894;2022-07-24T02:58:09;84383.85;;;17.46;62.35
70437;BME280;57877;39.750;-104.894;2022-07-24T03:00:35;84388.09;;;17.42;63.28
70437;BME280;57877;39.750;-104.894;2022-07-24T03:03:01;84374.44;;;18.26;60.77
70437;BME280;57877;39.750;-104.894;2022-07-24T03:05:27;84366.99;;;17.74;61.43
70437;BME280;57877;39.750;-104.894;2022-07-24T03:07:53;84362.79;;;17.54;59.66
70437;BME280;57877;39.750;-104.894;2022-07-24T03:10:19;84358.74;;;17.81;60.01
70437;BME280;57877;39.750;-104.894;2022-07-24T03:12:45;84359.05;;;17.68;59.45
70437;BME280;57877;39.750;-104.894;2022-07-24T03:15:12;84354.13;;;19.42;57.16
70437;BME280;57877;39.750;-104.894;2022-07-24T03:17:37;84353.12;;;19.17;56.52
70437;BME280;57877;39.750;-104.894;2022-07-24T03:20:04;84351.89;;;19.90;55.93
70437;BME280;57877;39.750;-104.894;2022-07-24T03:22:28;84338.67;;;20.31;53.88
70437;BME280;57877;39.750;-104.894;2022-07-24T03:24:55;84319.93;;;19.98;54.75
70437;BME280;57877;39.750;-104.894;2022-07-24T03:27:20;84308.00;;;19.26;57.87
70437;BME280;57877;39.750;-104.894;2022-07-24T03:29:47;84310.33;;;19.60;56.33
70437;BME280;57877;39.750;-104.894;2022-07-24T03:32:12;84331.25;;;19.47;55.57
70437;BME280;57877;39.750;-104.894;2022-07-24T03:34:39;84337.55;;;19.79;54.60
70437;BME280;57877;39.750;-104.894;2022-07-24T03:37:04;84331.13;;;19.13;56.80
70437;BME280;57877;39.750;-104.894;2022-07-24T03:39:31;84318.79;;;18.90;57.92
70437;BME280;57877;39.750;-104.894;2022-07-24T03:41:56;84303.84;;;17.83;59.50
70437;BME280;57877;39.750;-104.894;2022-07-24T03:44:22;84295.62;;;17.60;61.75
70437;BME280;57877;39.750;-104.894;2022-07-24T03:46:48;84283.82;;;18.24;61.84
70437;BME280;57877;39.750;-104.894;2022-07-24T03:49:14;84273.95;;;18.58;59.70
70437;BME280;57877;39.750;-104.894;2022-07-24T03:51:40;84270.56;;;18.66;58.20
70437;BME280;57877;39.750;-104.894;2022-07-24T03:54:06;84269.16;;;19.49;56.00
70437;BME280;57877;39.750;-104.894;2022-07-24T03:56:32;84280.48;;;19.99;54.75
70437;BME280;57877;39.750;-104.894;2022-07-24T03:58:58;84287.16;;;20.01;52.55
70437;BME280;57877;39.750;-104.894;2022-07-24T04:01:24;84295.14;;;19.71;51.90
70437;BME280;57877;39.750;-104.894;2022-07-24T04:03:50;84288.80;;;20.66;51.31
70437;BME280;57877;39.750;-104.894;2022-07-24T04:06:15;84275.90;;;20.61;51.37
70437;BME280;57877;39.750;-104.894;2022-07-24T04:08:40;84282.38;;;20.46;51.24
70437;BME280;57877;39.750;-104.894;2022-07-24T04:11:06;84303.60;;;20.68;50.21
70437;BME280;57877;39.750;-104.894;2022-07-24T04:13:32;84317.33;;;21.00;49.56
70437;BME280;57877;39.750;-104.894;2022-07-24T04:15:58;84321.39;;;21.31;49.05
70437;BME280;57877;39.750;-104.894;2022-07-24T04:18:24;84330.06;;;21.13;48.48
70437;BME280;57877;39.750;-104.894;2022-07-24T04:20:51;84342.28;;;20.97;48.59
70437;BME280;57877;39.750;-104.894;2022-07-24T04:23:16;84338.50;;;21.35;47.97
70437;BME280;57877;39.750;-104.894;2022-07-24T04:25:42;84328.65;;;21.66;47.52
70437;BME280;57877;39.750;-104.894;2022-07-24T04:28:08;84317.36;;;21.74;47.25
70437;BME280;57877;39.750;-104.894;2022-07-24T04:30:34;84304.11;;;21.75;46.79
70437;BME280;57877;39.750;-104.894;2022-07-24T04:33:00;84302.19;;;21.31;47.59
70437;BME280;57877;39.750;-104.894;2022-07-24T04:35:26;84307.78;;;21.31;48.72
70437;BME280;57877;39.750;-104.894;2022-07-24T04:37:52;84298.04;;;21.31;48.77
70437;BME280;57877;39.750;-104.894;2022-07-24T04:40:18;84276.32;;;21.28;48.50
70437;BME280;57877;39.750;-104.894;2022-07-24T04:42:44;84256.92;;;20.81;49.59
70437;BME280;57877;39.750;-104.894;2022-07-24T04:45:10;84227.57;;;19.91;52.14
70437;BME280;57877;39.750;-104.894;2022-07-24T04:47:36;84223.13;;;20.30;51.02
70437;BME280;57877;39.750;-104.894;2022-07-24T04:50:04;84254.32;;;20.59;50.82
70437;BME280;57877;39.750;-104.894;2022-07-24T04:52:28;84294.43;;;21.04;50.18
70437;BME280;57877;39.750;-104.894;2022-07-24T04:54:54;84310.36;;;21.16;49.57
70437;BME280;57877;39.750;-104.894;2022-07-24T04:57:20;84311.86;;;20.75;50.31
70437;BME280;57877;39.750;-104.894;2022-07-24T04:59:46;84304.62;;;19.76;52.92
70437;BME280;57877;39.750;-104.894;2022-07-24T05:02:12;84308.56;;;19.64;54.54
70437;BME280;57877;39.750;-104.894;2022-07-24T05:04:38;84315.20;;;19.38;54.18
70437;BME280;57877;39.750;-104.894;2022-07-24T05:07:04;84320.92;;;19.96;53.24
70437;BME280;57877;39.750;-104.894;2022-07-24T05:09:31;84326.20;;;19.94;52.62
70437;BME280;57877;39.750;-104.894;2022-07-24T05:11:56;84331.14;;;20.36;51.15
70437;BME280;57877;39.750;-104.894;2022-07-24T05:14:23;84335.83;;;20.64;49.43
70437;BME280;57877;39.750;-104.894;2022-07-24T05:16:48;84339.81;;;21.47;47.56
70437;BME280;57877;39.750;-104.894;2022-07-24T05:19:14;84330.12;;;21.57;47.47
70437;BME280;57877;39.750;-104.894;2022-07-24T05:21:39;84319.20;;;21.20;48.19
70437;BME280;57877;39.750;-104.894;2022-07-24T05:24:05;84315.07;;;21.11;47.76
70437;BME280;57877;39.750;-104.894;2022-07-24T05:26:31;84320.81;;;21.32;47.21
70437;BME280;57877;39.750;-104.894;2022-07-24T05:28:56;84324.70;;;21.36;47.84
70437;BME280;57877;39.750;-104.894;2022-07-24T05:31:22;84326.67;;;21.56;47.10
70437;BME280;57877;39.750;-104.894;2022-07-24T05:33:47;84326.70;;;21.52;46.94
70437;BME280;57877;39.750;-104.894;2022-07-24T05:36:12;84326.17;;;21.05;47.85
70437;BME280;57877;39.750;-104.894;2022-07-24T05:38:37;84325.89;;;20.98;49.01
70437;BME280;57877;39.750;-104.894;2022-07-24T05:41:02;84323.69;;;20.67;50.26
70437;BME280;57877;39.750;-104.894;2022-07-24T05:43:28;84317.21;;;20.73;49.49
70437;BME280;57877;39.750;-104.894;2022-07-24T05:45:53;84317.31;;;20.46;50.59
70437;BME280;57877;39.750;-104.894;2022-07-24T05:48:18;84324.70;;;20.70;50.20
70437;BME280;57877;39.750;-104.894;2022-07-24T05:50:44;84330.49;;;21.00;49.72
70437;BME280;57877;39.750;-104.894;2022-07-24T05:53:09;84332.71;;;21.25;48.86
70437;BME280;57877;39.750;-104.894;2022-07-24T05:55:34;84330.17;;;20.84;49.87
70437;BME280;57877;39.750;-104.894;2022-07-24T05:58:01;84322.29;;;20.90;49.85
70437;BME280;57877;39.750;-104.894;2022-07-24T06:00:26;84323.75;;;20.10;51.10
70437;BME280;57877;39.750;-104.894;2022-07-24T06:02:52;84321.88;;;20.35;50.90
70437;BME280;57877;39.750;-104.894;2022-07-24T06:05:18;84309.83;;;20.48;50.51
70437;BME280;57877;39.750;-104.894;2022-07-24T06:07:45;84302.98;;;20.05;51.36
70437;BME280;57877;39.750;-104.894;2022-07-24T06:10:09;84300.88;;;20.59;51.03
70437;BME280;57877;39.750;-104.894;2022-07-24T06:12:35;84287.26;;;20.55;50.11
70437;BME280;57877;39.750;-104.894;2022-07-24T06:14:59;84281.49;;;19.77;51.61
70437;BME280;57877;39.750;-104.894;2022-07-24T06:17:24;84277.91;;;19.56;53.33
70437;BME280;57877;39.750;-104.894;2022-07-24T06:19:51;84267.89;;;18.71;55.48
70437;BME280;57877;39.750;-104.894;2022-07-24T06:22:17;84262.26;;;19.08;54.46
70437;BME280;57877;39.750;-104.894;2022-07-24T06:24:42;84261.04;;;19.22;54.70
70437;BME280;57877;39.750;-104.894;2022-07-24T06:27:07;84253.76;;;19.50;53.52
70437;BME280;57877;39.750;-104.894;2022-07-24T06:29:32;84255.26;;;19.26;54.10
70437;BME280;57877;39.750;-104.894;2022-07-24T06:31:57;84251.35;;;19.40;54.30
70437;BME280;57877;39.750;-104.894;2022-07-24T06:34:22;84249.11;;;19.45;53.13
70437;BME280;57877;39.750;-104.894;2022-07-24T06:36:48;84243.26;;;19.89;52.69
70437;BME280;57877;39.750;-104.894;2022-07-24T06:39:14;84233.87;;;18.85;52.85
70437;BME280;57877;39.750;-104.894;2022-07-24T06:41:40;84224.99;;;18.51;55.10
70437;BME280;57877;39.750;-104.894;2022-07-24T06:44:06;84215.78;;;18.82;54.99
70437;BME280;57877;39.750;-104.894;2022-07-24T06:46:32;84212.73;;;19.03;53.54
70437;BME280;57877;39.750;-104.894;2022-07-24T06:48:57;84213.51;;;19.44;52.07
70437;BME280;57877;39.750;-104.894;2022-07-24T06:51:22;84222.73;;;19.97;50.75
70437;BME280;57877;39.750;-104.894;2022-07-24T06:53:48;84225.22;;;20.00;49.23
70437;BME280;57877;39.750;-104.894;2022-07-24T06:56:14;84224.68;;;20.13;49.28
70437;BME280;57877;39.750;-104.894;2022-07-24T06:58:40;84222.81;;;20.07;49.04
70437;BME280;57877;39.750;-104.894;2022-07-24T07:01:06;84221.76;;;20.55;48.21
70437;BME280;57877;39.750;-104.894;2022-07-24T07:03:31;84221.23;;;20.26;48.47
70437;BME280;57877;39.750;-104.894;2022-07-24T07:05:56;84219.27;;;20.95;47.32
70437;BME280;57877;39.750;-104.894;2022-07-24T07:08:21;84216.12;;;21.00;47.18
70437;BME280;57877;39.750;-104.894;2022-07-24T07:10:46;84216.96;;;21.04;46.49
70437;BME280;57877;39.750;-104.894;2022-07-24T07:13:12;84217.53;;;20.94;46.50
70437;BME280;57877;39.750;-104.894;2022-07-24T07:15:38;84217.44;;;21.11;46.24
70437;BME280;57877;39.750;-104.894;2022-07-24T07:18:03;84215.91;;;21.39;45.91
70437;BME280;57877;39.750;-104.894;2022-07-24T07:20:28;84210.55;;;20.84;46.00
70437;BME280;57877;39.750;-104.894;2022-07-24T07:22:54;84199.48;;;20.64;46.32
70437;BME280;57877;39.750;-104.894;2022-07-24T07:25:20;84188.00;;;20.78;46.14
70437;BME280;57877;39.750;-104.894;2022-07-24T07:27:45;84176.27;;;20.21;47.94
70437;BME280;57877;39.750;-104.894;2022-07-24T07:30:11;84171.50;;;20.12;48.26
70437;BME280;57877;39.750;-104.894;2022-07-24T07:32:38;84172.84;;;19.55;49.52
70437;BME280;57877;39.750;-104.894;2022-07-24T07:35:04;84169.41;;;19.79;49.35
70437;BME280;57877;39.750;-104.894;2022-07-24T07:37:29;84165.48;;;19.52;48.90
70437;BME280;57877;39.750;-104.894;2022-07-24T07:39:55;84164.65;;;19.68;49.31
70437;BME280;57877;39.750;-104.894;2022-07-24T07:42:21;84163.61;;;20.14;47.85
70437;BME280;57877;39.750;-104.894;2022-07-24T07:44:47;84161.32;;;19.73;48.65
70437;BME280;57877;39.750;-104.894;2022-07-24T07:47:14;84163.39;;;19.60;48.47
70437;BME280;57877;39.750;-104.894;2022-07-24T07:49:39;84165.90;;;19.60;49.00
70437;BME280;57877;39.750;-104.894;2022-07-24T07:52:06;84160.19;;;19.82;48.06
70437;BME280;57877;39.750;-104.894;2022-07-24T07:54:31;84158.49;;;19.85;47.87
70437;BME280;57877;39.750;-104.894;2022-07-24T07:56:57;84155.63;;;19.98;47.09
70437;BME280;57877;39.750;-104.894;2022-07-24T07:59:23;84154.17;;;20.09;46.72
70437;BME280;57877;39.750;-104.894;2022-07-24T08:01:50;84151.91;;;20.59;45.65
70437;BME280;57877;39.750;-104.894;2022-07-24T08:04:15;84152.80;;;20.55;45.20
70437;BME280;57877;39.750;-104.894;2022-07-24T08:06:41;84156.24;;;20.39;45.31
70437;BME280;57877;39.750;-104.894;2022-07-24T08:09:06;84161.92;;;20.60;44.57
70437;BME280;57877;39.750;-104.894;2022-07-24T08:11:31;84160.25;;;20.59;44.80
70437;BME280;57877;39.750;-104.894;2022-07-24T08:13:56;84160.93;;;20.94;44.10
70437;BME280;57877;39.750;-104.894;2022-07-24T08:16:22;84160.03;;;21.05;43.80
70437;BME280;57877;39.750;-104.894;2022-07-24T08:18:48;84158.76;;;20.88;43.44
70437;BME280;57877;39.750;-104.894;2022-07-24T08:21:15;84153.31;;;20.36;44.30
70437;BME280;57877;39.750;-104.894;2022-07-24T08:23:41;84152.58;;;20.80;43.92
70437;BME280;57877;39.750;-104.894;2022-07-24T08:26:06;84150.07;;;20.15;43.78
70437;BME280;57877;39.750;-104.894;2022-07-24T08:28:31;84148.30;;;20.65;43.72
70437;BME280;57877;39.750;-104.894;2022-07-24T08:30:56;84149.19;;;20.89;43.78
70437;BME280;57877;39.750;-104.894;2022-07-24T08:33:23;84147.86;;;20.70;43.86
70437;BME280;57877;39.750;-104.894;2022-07-24T08:35:48;84148.55;;;20.75;44.17
70437;BME280;57877;39.750;-104.894;2022-07-24T08:38:14;84149.47;;;20.62;44.32
70437;BME280;57877;39.750;-104.894;2022-07-24T08:40:41;84150.66;;;20.85;44.09
70437;BME280;57877;39.750;-104.894;2022-07-24T08:43:08;84154.20;;;20.78;43.79
70437;BME280;57877;39.750;-104.894;2022-07-24T08:45:35;84154.21;;;20.77;43.92
70437;BME280;57877;39.750;-104.894;2022-07-24T08:47:59;84151.39;;;20.74;43.56
70437;BME280;57877;39.750;-104.894;2022-07-24T08:50:25;84150.15;;;21.02;43.58
70437;BME280;57877;39.750;-104.894;2022-07-24T08:52:51;84146.38;;;20.89;43.29
70437;BME280;57877;39.750;-104.894;2022-07-24T08:55:17;84142.79;;;20.85;43.29
70437;BME280;57877;39.750;-104.894;2022-07-24T08:57:42;84143.63;;;20.48;43.61
70437;BME280;57877;39.750;-104.894;2022-07-24T09:00:09;84141.60;;;20.27;44.42
70437;BME280;57877;39.750;-104.894;2022-07-24T09:02:37;84140.14;;;19.75;45.39
70437;BME280;57877;39.750;-104.894;2022-07-24T09:05:02;84140.57;;;20.28;45.44
70437;BME280;57877;39.750;-104.894;2022-07-24T09:07:29;84135.42;;;20.03;45.19
70437;BME280;57877;39.750;-104.894;2022-07-24T09:09:58;84136.87;;;20.26;44.42
70437;BME280;57877;39.750;-104.894;2022-07-24T09:12:18;84132.17;;;20.47;44.28
70437;BME280;57877;39.750;-104.894;2022-07-24T09:14:46;84129.66;;;20.65;43.89
70437;BME280;57877;39.750;-104.894;2022-07-24T09:17:12;84124.42;;;20.70;43.44
70437;BME280;57877;39.750;-104.894;2022-07-24T09:22:02;84112.67;;;20.65;43.24
70437;BME280;57877;39.750;-104.894;2022-07-24T09:24:28;84110.35;;;20.79;43.02
70437;BME280;57877;39.750;-104.894;2022-07-24T09:26:55;84109.48;;;20.68;42.50
70437;BME280;57877;39.750;-104.894;2022-07-24T09:29:22;84110.38;;;20.47;43.14
70437;BME280;57877;39.750;-104.894;2022-07-24T09:31:52;84103.96;;;20.32;43.30
70437;BME280;57877;39.750;-104.894;2022-07-24T09:34:12;84100.15;;;20.43;43.26
70437;BME280;57877;39.750;-104.894;2022-07-24T09:36:38;84096.61;;;20.56;42.92
70437;BME280;57877;39.750;-104.894;2022-07-24T09:39:04;84100.46;;;20.34;43.42
70437;BME280;57877;39.750;-104.894;2022-07-24T09:41:30;84093.60;;;20.06;43.92
70437;BME280;57877;39.750;-104.894;2022-07-24T09:43:58;84090.90;;;20.11;43.84
70437;BME280;57877;39.750;-104.894;2022-07-24T09:46:23;84092.99;;;19.93;43.96
70437;BME280;57877;39.750;-104.894;2022-07-24T09:48:53;84092.95;;;20.10;44.32
70437;BME280;57877;39.750;-104.894;2022-07-24T09:51:15;84088.89;;;19.80;44.18
70437;BME280;57877;39.750;-104.894;2022-07-24T09:53:40;84086.43;;;20.10;43.44
70437;BME280;57877;39.750;-104.894;2022-07-24T09:56:08;84087.24;;;20.06;43.47
70437;BME280;57877;39.750;-104.894;2022-07-24T09:58:35;84085.82;;;20.32;43.26
70437;BME280;57877;39.750;-104.894;2022-07-24T10:00:58;84085.84;;;20.51;42.26
70437;BME280;57877;39.750;-104.894;2022-07-24T10:03:26;84086.42;;;20.51;42.18
70437;BME280;57877;39.750;-104.894;2022-07-24T10:05:55;84085.08;;;20.76;42.38
70437;BME280;57877;39.750;-104.894;2022-07-24T10:08:16;84090.75;;;20.81;42.97
70437;BME280;57877;39.750;-104.894;2022-07-24T10:10:42;84093.08;;;20.87;43.30
70437;BME280;57877;39.750;-104.894;2022-07-24T10:13:08;84086.29;;;20.94;42.96
70437;BME280;57877;39.750;-104.894;2022-07-24T10:15:34;84084.45;;;20.81;42.72
70437;BME280;57877;39.750;-104.894;2022-07-24T10:18:12;84084.07;;;20.60;42.74
70437;BME280;57877;39.750;-104.894;2022-07-24T10:20:37;84083.14;;;21.07;42.83
70437;BME280;57877;39.750;-104.894;2022-07-24T10:22:59;84084.53;;;20.49;42.78
70437;BME280;57877;39.750;-104.894;2022-07-24T10:25:19;84082.21;;;20.42;42.76
70437;BME280;57877;39.750;-104.894;2022-07-24T10:27:45;84087.62;;;20.81;42.65
70437;BME280;57877;39.750;-104.894;2022-07-24T10:30:10;84087.04;;;20.45;43.07
70437;BME280;57877;39.750;-104.894;2022-07-24T10:32:36;84084.19;;;20.42;42.91
70437;BME280;57877;39.750;-104.894;2022-07-24T10:35:10;84082.90;;;20.44;42.82
70437;BME280;57877;39.750;-104.894;2022-07-24T10:37:33;84080.21;;;20.48;43.15
70437;BME280;57877;39.750;-104.894;2022-07-24T10:40:03;84075.97;;;20.38;43.25
70437;BME280;57877;39.750;-104.894;2022-07-24T10:42:19;84074.02;;;20.08;43.20
70437;BME280;57877;39.750;-104.894;2022-07-24T10:44:45;84077.18;;;20.25;43.22
70437;BME280;57877;39.750;-104.894;2022-07-24T10:47:12;84078.90;;;20.32;43.52
70437;BME280;57877;39.750;-104.894;2022-07-24T10:49:43;84078.68;;;20.22;43.90
70437;BME280;57877;39.750;-104.894;2022-07-24T10:52:03;84081.57;;;20.08;43.98
70437;BME280;57877;39.750;-104.894;2022-07-24T10:54:28;84083.39;;;20.23;43.57
70437;BME280;57877;39.750;-104.894;2022-07-24T10:56:54;84086.47;;;19.89;43.75
70437;BME280;57877;39.750;-104.894;2022-07-24T11:01:48;84081.74;;;19.91;43.72
70437;BME280;57877;39.750;-104.894;2022-07-24T11:06:41;84078.30;;;20.07;43.22
70437;BME280;57877;39.750;-104.894;2022-07-24T11:09:04;84083.93;;;20.12;43.09
70437;BME280;57877;39.750;-104.894;2022-07-24T11:11:30;84081.99;;;20.35;42.74
70437;BME280;57877;39.750;-104.894;2022-07-24T11:13:56;84080.66;;;19.93;43.06
70437;BME280;57877;39.750;-104.894;2022-07-24T11:16:25;84085.07;;;19.83;43.19
70437;BME280;57877;39.750;-104.894;2022-07-24T11:21:26;84091.47;;;20.12;42.63
70437;BME280;57877;39.750;-104.894;2022-07-24T11:23:40;84096.33;;;19.81;42.38
70437;BME280;57877;39.750;-104.894;2022-07-24T11:28:32;84101.87;;;20.43;41.27
70437;BME280;57877;39.750;-104.894;2022-07-24T11:30:58;84099.41;;;20.22;41.11
70437;BME280;57877;39.750;-104.894;2022-07-24T11:33:24;84104.68;;;20.36;41.52
70437;BME280;57877;39.750;-104.894;2022-07-24T11:35:50;84112.16;;;20.28;42.01
70437;BME280;57877;39.750;-104.894;2022-07-24T11:38:16;84114.32;;;19.43;43.19
70437;BME280;57877;39.750;-104.894;2022-07-24T11:40:42;84113.29;;;20.06;42.68
70437;BME280;57877;39.750;-104.894;2022-07-24T11:43:08;84111.05;;;19.94;42.41
70437;BME280;57877;39.750;-104.894;2022-07-24T11:45:34;84108.41;;;20.35;41.94
70437;BME280;57877;39.750;-104.894;2022-07-24T11:48:00;84107.97;;;20.41;41.90
70437;BME280;57877;39.750;-104.894;2022-07-24T11:50:27;84106.01;;;20.39;41.80
70437;BME280;57877;39.750;-104.894;2022-07-24T11:52:52;84110.56;;;20.33;42.10
70437;BME280;57877;39.750;-104.894;2022-07-24T11:55:19;84113.61;;;20.09;42.23
70437;BME280;57877;39.750;-104.894;2022-07-24T11:57:46;84113.33;;;20.09;42.15
70437;BME280;57877;39.750;-104.894;2022-07-24T12:00:11;84110.65;;;19.87;42.26
70437;BME280;57877;39.750;-104.894;2022-07-24T12:02:36;84111.53;;;19.95;42.48
70437;BME280;57877;39.750;-104.894;2022-07-24T12:05:02;84114.30;;;20.38;42.24
70437;BME280;57877;39.750;-104.894;2022-07-24T12:07:28;84114.14;;;20.06;41.94
70437;BME280;57877;39.750;-104.894;2022-07-24T12:09:55;84117.95;;;20.28;42.01
70437;BME280;57877;39.750;-104.894;2022-07-24T12:12:23;84125.47;;;20.06;42.15
70437;BME280;57877;39.750;-104.894;2022-07-24T12:14:46;84125.08;;;20.12;42.56
70437;BME280;57877;39.750;-104.894;2022-07-24T12:17:11;84126.47;;;19.94;42.67
70437;BME280;57877;39.750;-104.894;2022-07-24T12:19:37;84124.30;;;20.41;42.15
70437;BME280;57877;39.750;-104.894;2022-07-24T12:22:03;84125.32;;;19.75;42.41
70437;BME280;57877;39.750;-104.894;2022-07-24T12:24:31;84126.34;;;20.20;41.86
70437;BME280;57877;39.750;-104.894;2022-07-24T12:26:57;84131.56;;;19.54;43.24
70437;BME280;57877;39.750;-104.894;2022-07-24T12:29:22;84137.95;;;20.01;43.00
70437;BME280;57877;39.750;-104.894;2022-07-24T12:31:47;84143.25;;;20.41;42.63
70437;BME280;57877;39.750;-104.894;2022-07-24T12:34:13;84145.39;;;20.28;43.07